createdAt,value
2023-03-23T15:57:54.235Z,16.45
2023-03-23T16:00:24.709Z,16.39
2023-03-23T16:02:56.496Z,16.33
2023-03-23T16:05:25.022Z,16.28
2023-03-23T16:07:53.330Z,16.23
2023-03-23T16:10:22.856Z,16.18
2023-03-23T16:12:52.594Z,16.13
2023-03-23T16:15:21.251Z,16.09
2023-03-23T16:17:49.502Z,16.04
2023-03-23T16:20:19.986Z,15.98
2023-03-23T16:22:48.507Z,15.91
2023-03-23T16:25:18.819Z,15.82
2023-03-23T16:27:52.455Z,15.74
2023-03-23T16:30:23.560Z,15.65
2023-03-23T16:32:52.285Z,15.56
2023-03-23T16:35:21.423Z,15.46
2023-03-23T16:38:07.798Z,15.36
2023-03-23T16:40:37.763Z,15.24
2023-03-23T16:43:09.143Z,15.16
2023-03-23T16:45:41.615Z,15.08
2023-03-23T16:48:12.749Z,14.98
2023-03-23T16:50:45.166Z,14.89
2023-03-23T16:53:14.169Z,14.82
2023-03-23T16:55:44.143Z,14.75
2023-03-23T16:58:17.501Z,14.69
2023-03-23T17:00:49.160Z,14.62
2023-03-23T17:10:28.600Z,14.42
2023-03-23T17:12:58.201Z,14.33
2023-03-23T17:15:26.491Z,14.25
2023-03-23T17:17:55.610Z,14.17
2023-03-23T17:20:23.954Z,14.09
2023-03-23T17:22:51.954Z,14.02
2023-03-23T17:25:20.026Z,13.94
2023-03-23T17:27:48.500Z,13.86
2023-03-23T17:30:16.496Z,13.77
2023-03-23T17:32:49.954Z,13.68
2023-03-23T17:35:18.504Z,13.60
2023-03-23T17:37:48.933Z,13.50
2023-03-23T17:40:18.131Z,13.40
2023-03-23T17:42:46.234Z,13.28
2023-03-23T17:45:15.447Z,13.17
2023-03-23T17:47:44.182Z,13.07
2023-03-23T17:50:18.595Z,12.98
2023-03-23T17:52:47.316Z,12.87
2023-03-23T17:55:16.336Z,12.76
2023-03-23T17:57:45.940Z,12.66
2023-03-23T18:00:15.647Z,12.54
2023-03-23T18:02:46.141Z,12.44
2023-03-23T18:05:15.996Z,12.33
2023-03-23T18:07:44.656Z,12.20
2023-03-23T18:10:14.508Z,12.09
2023-03-23T18:12:43.834Z,11.98
2023-03-23T18:15:12.364Z,11.88
2023-03-23T18:17:40.778Z,11.79
2023-03-23T18:20:09.179Z,11.70
2023-03-23T18:22:37.211Z,11.63
2023-03-23T18:25:06.002Z,11.57
2023-03-23T18:27:34.891Z,11.52
2023-03-23T18:30:03.838Z,11.48
2023-03-23T18:32:36.129Z,11.44
2023-03-23T18:35:05.408Z,11.39
2023-03-23T18:37:34.396Z,11.33
2023-03-23T18:40:02.801Z,11.29
2023-03-23T18:42:31.825Z,11.26
2023-03-23T18:45:00.262Z,11.23
2023-03-23T18:47:28.517Z,11.21
2023-03-23T18:49:57.263Z,11.18
2023-03-23T18:52:26.622Z,11.15
2023-03-23T18:54:55.243Z,11.11
2023-03-23T18:57:23.749Z,11.06
2023-03-23T18:59:52.230Z,10.99
2023-03-23T19:02:20.608Z,10.92
2023-03-23T19:04:49.570Z,10.85
2023-03-23T19:07:18.252Z,10.77
2023-03-23T19:09:47.470Z,10.71
2023-03-23T19:12:15.999Z,10.63
2023-03-23T19:14:44.993Z,10.54
2023-03-23T19:17:13.290Z,10.47
2023-03-23T19:19:43.736Z,10.41
2023-03-23T19:22:13.100Z,10.39
2023-03-23T19:24:41.348Z,10.36
2023-03-23T19:27:11.041Z,10.33
2023-03-23T19:29:39.298Z,10.30
2023-03-23T19:32:10.045Z,10.28
2023-03-23T19:34:39.572Z,10.25
2023-03-23T19:37:11.022Z,10.23
2023-03-23T19:39:41.823Z,10.22
2023-03-23T19:42:11.878Z,10.22
2023-03-23T19:44:41.422Z,10.24
2023-03-23T19:47:09.961Z,10.24
2023-03-23T19:49:45.687Z,10.24
2023-03-23T19:52:16.192Z,10.22
2023-03-23T19:54:46.111Z,10.21
2023-03-23T19:57:14.674Z,10.19
2023-03-23T19:59:44.288Z,10.17
2023-03-23T20:02:12.957Z,10.17
2023-03-23T20:04:43.520Z,10.18
2023-03-23T20:07:12.622Z,10.19
2023-03-23T20:09:41.088Z,10.21
2023-03-23T20:12:12.900Z,10.23
2023-03-23T20:14:45.055Z,10.26
2023-03-23T20:17:14.846Z,10.30
2023-03-23T20:19:46.096Z,10.31
2023-03-23T20:29:57.299Z,10.44
2023-03-23T20:32:26.561Z,10.47
2023-03-23T20:34:57.094Z,10.52
2023-03-23T20:37:26.004Z,10.55
2023-03-23T20:39:57.882Z,10.56
2023-03-23T20:42:26.160Z,10.56
2023-03-23T20:44:54.422Z,10.57
2023-03-23T20:47:23.105Z,10.56
2023-03-23T20:49:53.939Z,10.54
2023-03-23T20:52:23.603Z,10.51
2023-03-23T20:54:53.798Z,10.49
2023-03-23T20:57:22.391Z,10.50
2023-03-23T20:59:53.404Z,10.50
2023-03-23T21:02:22.039Z,10.50
2023-03-23T21:04:53.055Z,10.51
2023-03-23T21:07:23.336Z,10.51
2023-03-23T21:09:52.308Z,10.52
2023-03-23T21:12:23.261Z,10.52
2023-03-23T21:14:51.665Z,10.53
2023-03-23T21:17:19.954Z,10.53
2023-03-23T21:19:48.840Z,10.54
2023-03-23T21:22:18.976Z,10.54
2023-03-23T21:24:50.457Z,10.54
2023-03-23T21:27:21.919Z,10.55
2023-03-23T21:29:51.164Z,10.56
2023-03-23T21:32:19.322Z,10.57
2023-03-23T21:34:51.525Z,10.57
2023-03-23T21:37:19.963Z,10.59
2023-03-23T21:39:51.223Z,10.58
2023-03-23T21:42:19.603Z,10.57
2023-03-23T21:44:48.732Z,10.55
2023-03-23T21:47:18.097Z,10.53
2023-03-23T21:49:47.476Z,10.51
2023-03-23T21:52:15.517Z,10.48
2023-03-23T21:54:43.675Z,10.45
2023-03-23T21:57:12.468Z,10.40
2023-03-23T21:59:42.923Z,10.37
2023-03-23T22:02:12.666Z,10.35
2023-03-23T22:04:41.442Z,10.33
2023-03-23T22:07:15.085Z,10.33
2023-03-23T22:09:45.421Z,10.32
2023-03-23T22:12:14.414Z,10.31
2023-03-23T22:14:42.590Z,10.31
2023-03-23T22:17:11.212Z,10.29
2023-03-23T22:19:39.459Z,10.26
2023-03-23T22:22:11.737Z,10.23
2023-03-23T22:24:40.540Z,10.20
2023-03-23T22:27:08.713Z,10.19
2023-03-23T22:29:37.825Z,10.20
2023-03-23T22:32:05.995Z,10.22
2023-03-23T22:34:34.074Z,10.25
2023-03-23T22:37:05.670Z,10.27
2023-03-23T22:39:34.675Z,10.28
2023-03-23T22:42:09.749Z,10.29
2023-03-23T22:44:39.862Z,10.30
2023-03-23T22:47:08.070Z,10.31
2023-03-23T22:49:39.111Z,10.31
2023-03-23T22:52:07.596Z,10.31
2023-03-23T22:54:39.473Z,10.30
2023-03-23T22:57:08.115Z,10.31
2023-03-23T22:59:36.524Z,10.30
2023-03-23T23:02:04.630Z,10.29
2023-03-23T23:04:33.632Z,10.28
2023-03-23T23:07:12.624Z,10.29
2023-03-23T23:09:55.356Z,10.28
2023-03-23T23:12:24.356Z,10.27
2023-03-23T23:14:58.628Z,10.27
2023-03-23T23:17:27.093Z,10.27
2023-03-23T23:19:55.274Z,10.27
2023-03-23T23:22:23.846Z,10.25
2023-03-23T23:24:52.027Z,10.22
2023-03-23T23:27:20.617Z,10.21
2023-03-23T23:29:49.299Z,10.19
2023-03-23T23:32:17.717Z,10.19
2023-03-23T23:34:46.881Z,10.18
2023-03-23T23:37:15.506Z,10.17
2023-03-23T23:39:43.652Z,10.16
2023-03-23T23:42:13.145Z,10.16
2023-03-23T23:44:43.331Z,10.16
2023-03-23T23:47:11.591Z,10.16
2023-03-23T23:49:40.347Z,10.18
2023-03-23T23:52:08.891Z,10.20
2023-03-23T23:54:42.603Z,10.21
2023-03-23T23:57:10.842Z,10.21
2023-03-23T23:59:39.087Z,10.22
